Time;durP1;ratioP1;P1;durP2;ratioP2;P2;SDS_P1;SDS_P2;PMS_P1;PMS_P2;Temp;Humidity;BMP_temperature;BMP_pressure;BME280_temperature;BME280_humidity;BME280_pressure;Samples;Min_cycle;Max_cycle;Signal;HPM_P1;HPM_P2
2021/05/18 00:01:48;;;;;;;3.95;2.80;;;24.00;46.00;;;;;;6179605;27;80606;-64
2021/05/18 00:04:48;;;;;;;3.80;2.40;;;24.10;46.10;;;;;;6162881;28;81691;-65
2021/05/18 00:08:00;;;;;;;4.68;3.30;;;24.00;46.00;;;;;;6182234;28;83181;-65
2021/05/18 00:14:20;;;;;;;5.00;3.08;;;24.00;45.80;;;;;;6173940;28;82165;-65
2021/05/18 00:17:20;;;;;;;6.43;2.92;;;24.00;45.60;;;;;;6151323;28;80629;-65
2021/05/18 00:20:21;;;;;;;5.35;3.30;;;24.00;45.80;;;;;;6161333;28;81301;-66
2021/05/18 00:23:21;;;;;;;3.88;2.80;;;24.00;45.80;;;;;;6166929;28;81194;-65
2021/05/18 00:26:22;;;;;;;3.33;2.55;;;24.00;45.60;;;;;;6181180;28;81723;-65
2021/05/18 00:29:22;;;;;;;5.95;2.88;;;24.00;45.70;;;;;;6180694;28;80507;-65
2021/05/18 00:32:23;;;;;;;5.95;3.00;;;24.00;45.80;;;;;;6183860;28;89162;-65
2021/05/18 00:35:23;;;;;;;4.20;2.80;;;24.00;45.50;;;;;;6188409;28;83458;-66
2021/05/18 00:38:24;;;;;;;4.03;2.78;;;24.00;45.80;;;;;;6178211;28;80421;-65
2021/05/18 00:41:24;;;;;;;4.30;3.25;;;24.00;45.70;;;;;;6169742;28;81370;-64
2021/05/18 00:44:25;;;;;;;4.38;3.00;;;24.00;45.70;;;;;;6179945;28;81995;-64
2021/05/18 00:47:25;;;;;;;4.10;3.00;;;24.00;45.50;;;;;;6164896;28;80621;-66
2021/05/18 00:50:27;;;;;;;4.28;2.90;;;24.00;45.50;;;;;;6185157;28;81658;-66
2021/05/18 00:53:27;;;;;;;3.35;2.72;;;24.00;45.40;;;;;;6186640;28;80622;-66
2021/05/18 00:59:39;;;;;;;4.88;2.90;;;24.00;45.50;;;;;;6171252;28;80240;-66
2021/05/18 01:02:40;;;;;;;5.43;3.20;;;24.00;45.60;;;;;;6159533;28;80896;-67
2021/05/18 01:08:59;;;;;;;4.25;3.08;;;24.00;45.40;;;;;;6164610;28;80098;-68
2021/05/18 01:12:00;;;;;;;4.22;3.33;;;24.00;45.50;;;;;;6166079;28;83053;-67
2021/05/18 01:15:00;;;;;;;4.85;3.03;;;24.00;45.50;;;;;;6179053;28;81467;-67
2021/05/18 01:18:01;;;;;;;4.00;3.00;;;24.00;45.00;;;;;;6175675;28;80333;-68
2021/05/18 01:21:01;;;;;;;4.47;3.40;;;24.00;45.50;;;;;;6179102;28;81266;-67
2021/05/18 01:24:02;;;;;;;4.18;2.92;;;24.00;45.40;;;;;;6178826;28;82625;-66
2021/05/18 01:27:03;;;;;;;4.72;3.38;;;24.00;45.30;;;;;;6202960;28;83254;-67
2021/05/18 01:30:03;;;;;;;4.50;2.85;;;24.00;45.40;;;;;;6192466;28;83409;-67
2021/05/18 01:33:07;;;;;;;5.15;3.25;;;24.00;45.20;;;;;;6152252;28;82927;-66
2021/05/18 01:36:09;;;;;;;5.28;3.63;;;24.00;45.30;;;;;;6173489;28;83837;-66
2021/05/18 01:45:31;;;;;;;5.07;3.20;;;24.00;45.30;;;;;;6166455;28;81707;-65
2021/05/18 01:48:35;;;;;;;4.68;2.90;;;23.90;45.30;;;;;;6154502;28;83216;-66
2021/05/18 01:51:36;;;;;;;6.15;3.60;;;23.90;45.10;;;;;;6175011;28;83210;-65
2021/05/18 01:54:37;;;;;;;5.43;3.22;;;23.90;45.10;;;;;;6180975;28;83310;-65
2021/05/18 01:57:39;;;;;;;5.35;3.17;;;23.90;45.10;;;;;;6165178;28;82727;-65
2021/05/18 02:00:48;;;;;;;4.40;3.05;;;23.90;45.30;;;;;;6184206;28;83125;-66
2021/05/18 02:04:00;;;;;;;4.75;3.42;;;23.90;45.00;;;;;;6159923;28;81528;-65
2021/05/18 02:07:01;;;;;;;5.65;3.35;;;23.90;45.10;;;;;;6187189;28;82852;-65
2021/05/18 02:10:02;;;;;;;3.95;2.80;;;23.90;45.10;;;;;;6181289;28;83339;-64
2021/05/18 02:13:05;;;;;;;4.53;3.00;;;23.90;45.10;;;;;;6182201;28;80913;-64
2021/05/18 02:16:12;;;;;;;4.13;2.78;;;23.90;45.20;;;;;;6182123;28;81380;-65
2021/05/18 02:19:48;;;;;;;4.63;3.10;;;23.90;44.90;;;;;;6160889;28;80553;-65
2021/05/18 02:26:11;;;;;;;4.15;2.90;;;23.90;44.70;;;;;;6171853;28;81489;-65
2021/05/18 02:29:17;;;;;;;4.85;3.03;;;23.90;44.90;;;;;;6157185;28;80835;-66
2021/05/18 02:32:18;;;;;;;6.72;3.30;;;23.90;45.10;;;;;;6164163;28;83363;-66
2021/05/18 02:35:22;;;;;;;5.72;3.05;;;23.90;45.00;;;;;;6185637;28;82708;-66
2021/05/18 02:38:22;;;;;;;6.13;3.70;;;23.90;45.00;;;;;;6179717;28;80446;-66
2021/05/18 02:41:26;;;;;;;4.15;2.75;;;23.90;44.90;;;;;;6165689;28;82358;-66
2021/05/18 02:44:43;;;;;;;5.57;3.80;;;23.90;44.90;;;;;;6187718;28;83069;-67
2021/05/18 02:51:04;;;;;;;6.07;3.50;;;23.90;44.70;;;;;;6182944;28;83880;-67
2021/05/18 02:54:25;;;;;;;5.38;2.90;;;23.90;45.00;;;;;;6181308;28;81756;-66
2021/05/18 02:57:33;;;;;;;4.85;2.90;;;23.90;44.70;;;;;;6156330;28;80430;-66
2021/05/18 03:00:34;;;;;;;4.25;3.05;;;23.90;44.80;;;;;;6159164;28;81179;-65
2021/05/18 03:03:34;;;;;;;5.25;2.83;;;23.90;44.80;;;;;;6173735;28;83599;-66
2021/05/18 03:06:35;;;;;;;3.83;2.67;;;23.90;44.80;;;;;;6181015;28;83147;-65
2021/05/18 03:09:36;;;;;;;5.57;3.08;;;23.90;44.80;;;;;;6166558;28;81209;-66
2021/05/18 03:12:36;;;;;;;4.43;3.20;;;23.90;44.60;;;;;;6153789;28;80403;-66
2021/05/18 03:15:37;;;;;;;3.40;2.60;;;23.90;44.50;;;;;;6173866;28;80732;-66
2021/05/18 03:18:37;;;;;;;5.35;3.28;;;23.80;44.60;;;;;;6180562;28;81473;-66
2021/05/18 03:21:38;;;;;;;5.57;2.92;;;23.80;44.80;;;;;;6182515;28;80838;-65
2021/05/18 03:24:42;;;;;;;4.70;2.90;;;23.80;44.70;;;;;;6182913;28;80944;-65
2021/05/18 03:27:43;;;;;;;4.95;3.03;;;23.80;44.70;;;;;;6183100;28;80373;-65
2021/05/18 03:40:19;;;;;;;7.22;3.13;;;23.80;44.50;;;;;;6182377;28;80655;-65
2021/05/18 04:02:54;;;;;;;3.45;2.40;;;23.80;44.90;;;;;;6183597;28;81347;-65
2021/05/18 04:12:42;;;;;;;6.22;3.15;;;23.80;44.10;;;;;;6176623;28;80471;-66
2021/05/18 04:19:06;;;;;;;4.85;2.67;;;23.80;44.40;;;;;;6158037;28;80942;-65
2021/05/18 04:38:48;;;;;;;3.88;2.78;;;23.90;45.10;;;;;;6179612;28;81025;-65
2021/05/18 04:42:20;;;;;;;5.18;2.95;;;23.90;45.30;;;;;;6184718;28;80237;-67
2021/05/18 04:48:52;;;;;;;10.77;4.85;;;23.80;45.10;;;;;;6173227;28;82171;-67
2021/05/18 05:01:15;;;;;;;12.93;4.38;;;23.90;46.10;;;;;;6170920;28;83267;-68
2021/05/18 05:07:16;;;;;;;10.45;4.55;;;24.00;45.80;;;;;;6177530;28;82946;-68
2021/05/18 05:10:23;;;;;;;8.35;3.78;;;24.00;46.00;;;;;;6154874;28;80532;-68
2021/05/18 05:16:50;;;;;;;;;;;24.00;46.30;;;;;;6141131;28;83592;-67
2021/05/18 05:19:51;;;;;;;5.82;3.38;;;24.00;46.20;;;;;;6197027;28;80308;-66
2021/05/18 05:22:51;;;;;;;5.32;3.42;;;24.10;46.10;;;;;;6184733;28;80136;-67
2021/05/18 05:25:52;;;;;;;17.83;3.58;;;24.00;46.10;;;;;;6185616;28;80482;-68
2021/05/18 05:28:59;;;;;;;4.82;3.13;;;24.00;46.40;;;;;;6188902;28;83216;-66
2021/05/18 05:32:00;;;;;;;4.88;3.20;;;24.00;45.90;;;;;;6168335;28;81014;-67
2021/05/18 05:35:01;;;;;;;4.97;2.97;;;24.00;46.80;;;;;;6188743;28;80409;-66
2021/05/18 05:38:01;;;;;;;6.72;3.20;;;24.10;46.80;;;;;;6160250;28;81527;-67
2021/05/18 05:41:02;;;;;;;5.57;2.42;;;24.10;46.70;;;;;;6162802;28;80615;-67
2021/05/18 05:44:03;;;;;;;5.95;3.15;;;24.00;46.20;;;;;;6161403;28;81699;-65
2021/05/18 05:47:03;;;;;;;5.75;2.90;;;24.10;46.60;;;;;;6184336;28;80226;-70
2021/05/18 05:50:04;;;;;;;12.43;3.00;;;24.00;46.20;;;;;;6179369;28;81763;-67
2021/05/18 05:53:04;;;;;;;5.75;3.22;;;24.00;46.50;;;;;;6158961;28;80369;-66
2021/05/18 05:56:05;;;;;;;5.00;2.65;;;24.00;47.30;;;;;;6165002;28;80660;-65
2021/05/18 05:59:08;;;;;;;4.80;2.42;;;24.00;47.00;;;;;;6161203;28;81944;-67
2021/05/18 06:02:08;;;;;;;8.85;2.78;;;24.00;47.00;;;;;;6165613;28;80420;-65
2021/05/18 06:05:09;;;;;;;6.63;2.75;;;24.00;46.30;;;;;;6180939;28;80980;-67
2021/05/18 06:08:09;;;;;;;5.57;2.40;;;23.90;46.40;;;;;;6170824;28;80859;-66
2021/05/18 06:11:17;;;;;;;7.38;2.65;;;23.90;46.40;;;;;;6162263;28;81142;-68
2021/05/18 06:14:35;;;;;;;6.95;2.20;;;23.90;46.70;;;;;;6176361;28;80764;-65
2021/05/18 06:37:40;;;;;;;10.18;2.70;;;23.90;45.90;;;;;;6154068;28;80465;-67
2021/05/18 06:50:29;;;;;;;15.48;2.53;;;23.90;46.40;;;;;;6184405;28;80320;-67
2021/05/18 06:53:29;;;;;;;4.50;2.55;;;23.90;45.70;;;;;;6188330;28;81434;-66
2021/05/18 06:56:34;;;;;;;7.28;2.80;;;23.90;46.30;;;;;;6181128;28;81118;-68
2021/05/18 07:02:57;;;;;;;5.15;2.15;;;23.90;46.10;;;;;;6159691;28;80784;-67
2021/05/18 07:09:24;;;;;;;4.00;2.28;;;23.90;47.00;;;;;;6164258;28;80637;-67
2021/05/18 07:12:25;;;;;;;5.57;2.50;;;23.90;45.50;;;;;;6173490;28;80837;-66
2021/05/18 07:15:27;;;;;;;3.28;2.25;;;23.90;45.80;;;;;;6182617;28;80404;-67
2021/05/18 07:18:28;;;;;;;4.95;2.22;;;24.00;45.50;;;;;;6168355;28;83262;-69
2021/05/18 07:21:28;;;;;;;3.85;2.40;;;24.00;45.60;;;;;;6167702;28;80392;-67
2021/05/18 07:24:30;;;;;;;2.90;2.00;;;24.00;46.40;;;;;;6160506;28;81223;-67
2021/05/18 07:27:31;;;;;;;3.65;2.30;;;24.00;45.90;;;;;;6182648;28;80026;-67
2021/05/18 07:30:31;;;;;;;3.22;2.13;;;24.00;46.80;;;;;;6167491;28;80458;-67
2021/05/18 07:33:32;;;;;;;4.43;2.85;;;24.00;45.80;;;;;;6155813;28;81653;-67
2021/05/18 07:36:32;;;;;;;3.42;2.30;;;23.90;46.20;;;;;;6153404;28;82393;-67
2021/05/18 07:39:33;;;;;;;71.22;22.50;;;24.00;47.10;;;;;;6174034;28;80535;-67
2021/05/18 07:42:33;;;;;;;233.30;76.68;;;24.00;46.80;;;;;;6177285;28;83142;-67
2021/05/18 07:45:34;;;;;;;909.95;363.88;;;24.00;45.60;;;;;;6156734;28;84048;-68
2021/05/18 07:48:45;;;;;;;493.48;165.73;;;24.00;45.80;;;;;;6167895;28;85559;-67
2021/05/18 08:05:21;;;;;;;476.50;154.38;;;23.90;45.60;;;;;;6149508;28;85626;-67
2021/05/18 08:08:21;;;;;;;433.13;142.85;;;24.00;45.50;;;;;;6173680;28;85757;-68
2021/05/18 08:11:23;;;;;;;402.45;130.82;;;24.00;45.50;;;;;;6175280;28;86598;-68
2021/05/18 08:14:25;;;;;;;399.98;128.45;;;24.00;45.70;;;;;;6174390;28;85804;-68
2021/05/18 08:17:30;;;;;;;361.15;116.97;;;24.00;45.50;;;;;;6177680;28;86954;-67
2021/05/18 09:50:13;;;;;;;33.60;13.38;;;23.90;45.90;;;;;;6180755;28;87417;-67
2021/05/18 10:35:04;;;;;;;16.70;7.38;;;23.90;46.70;;;;;;6182279;28;81887;-68
2021/05/18 10:38:09;;;;;;;18.65;8.52;;;23.90;46.60;;;;;;6184560;28;80742;-67
2021/05/18 10:41:10;;;;;;;13.98;7.82;;;23.90;45.80;;;;;;6184616;28;82575;-67
2021/05/18 10:44:12;;;;;;;17.38;8.23;;;23.90;45.90;;;;;;6183979;28;80995;-68
2021/05/18 10:47:12;;;;;;;13.80;7.45;;;24.00;45.70;;;;;;6181788;28;80187;-66
2021/05/18 10:50:13;;;;;;;13.48;7.75;;;24.00;46.10;;;;;;6182327;28;83345;-67
2021/05/18 10:53:13;;;;;;;14.23;7.43;;;24.00;45.70;;;;;;6181381;28;80412;-68
2021/05/18 10:56:14;;;;;;;13.55;7.43;;;24.00;45.80;;;;;;6158977;28;80806;-67
2021/05/18 10:59:14;;;;;;;16.42;7.00;;;24.00;46.30;;;;;;6163911;28;81830;-67
2021/05/18 11:02:15;;;;;;;10.48;6.13;;;24.00;46.30;;;;;;6190411;28;80636;-67
2021/05/18 11:05:15;;;;;;;11.95;6.30;;;24.00;46.20;;;;;;6186511;28;80451;-66
2021/05/18 11:08:16;;;;;;;11.20;5.82;;;24.00;46.70;;;;;;6182719;28;80439;-67
2021/05/18 11:11:16;;;;;;;14.25;6.40;;;23.90;46.70;;;;;;6183723;28;80711;-67
2021/05/18 11:14:17;;;;;;;10.43;6.47;;;24.00;46.60;;;;;;6176749;28;80633;-67
2021/05/18 11:17:17;;;;;;;11.77;5.30;;;24.00;45.60;;;;;;6165992;28;81303;-67
2021/05/18 11:20:26;;;;;;;9.82;5.70;;;23.90;45.30;;;;;;6179012;28;80818;-68
2021/05/18 11:23:27;;;;;;;9.43;5.20;;;24.00;45.50;;;;;;6157453;28;80378;-66
2021/05/18 11:26:28;;;;;;;9.20;5.70;;;23.90;46.20;;;;;;6166063;28;81471;-67
2021/05/18 11:29:28;;;;;;;8.70;4.78;;;23.90;46.00;;;;;;6196910;28;81416;-67
2021/05/18 11:32:29;;;;;;;9.90;5.30;;;23.90;46.30;;;;;;6182646;28;80682;-67
2021/05/18 11:35:29;;;;;;;6.47;4.70;;;23.90;46.50;;;;;;6169463;28;80733;-70
2021/05/18 11:38:30;;;;;;;6.50;4.65;;;23.90;45.60;;;;;;6165611;28;81592;-69
2021/05/18 11:41:30;;;;;;;7.10;4.50;;;24.00;45.50;;;;;;6180343;28;81882;-69
2021/05/18 11:44:31;;;;;;;7.43;4.65;;;24.00;45.30;;;;;;6174408;28;81536;-69
2021/05/18 11:47:31;;;;;;;12.18;4.78;;;24.00;45.30;;;;;;6163849;28;80587;-69
2021/05/18 11:50:32;;;;;;;6.75;4.40;;;24.00;45.40;;;;;;6187658;28;81986;-68
2021/05/18 11:53:32;;;;;;;7.85;4.88;;;24.00;45.60;;;;;;6164924;28;80592;-69
2021/05/18 11:56:33;;;;;;;7.63;5.22;;;24.00;45.60;;;;;;6166191;28;82710;-69
2021/05/18 11:59:34;;;;;;;5.78;3.80;;;23.90;45.60;;;;;;6151445;28;82711;-69
2021/05/18 12:02:34;;;;;;;8.02;4.15;;;24.00;45.60;;;;;;6149019;28;80818;-70
2021/05/18 12:05:35;;;;;;;6.75;4.32;;;24.00;45.80;;;;;;6161998;28;81452;-69
2021/05/18 12:08:35;;;;;;;5.72;3.55;;;24.00;46.00;;;;;;6179730;28;83089;-70
2021/05/18 12:11:36;;;;;;;8.55;4.03;;;24.00;46.30;;;;;;6176184;28;82035;-69
2021/05/18 12:14:36;;;;;;;5.18;3.60;;;24.00;46.10;;;;;;6170560;28;80665;-68
2021/05/18 12:17:37;;;;;;;6.32;3.90;;;24.00;46.30;;;;;;6149692;28;80282;-69
2021/05/18 12:20:37;;;;;;;5.40;3.55;;;24.00;46.00;;;;;;6157402;28;80852;-69
2021/05/18 12:23:38;;;;;;;5.95;3.85;;;24.00;46.60;;;;;;6161140;28;82397;-70
2021/05/18 12:26:38;;;;;;;8.55;3.70;;;24.00;46.20;;;;;;6170301;28;80620;-69
2021/05/18 12:29:41;;;;;;;6.00;3.35;;;24.00;46.30;;;;;;6159963;28;82161;-69
2021/05/18 12:32:41;;;;;;;4.68;3.47;;;24.00;46.30;;;;;;6194242;28;81443;-69
2021/05/18 12:35:42;;;;;;;4.88;3.25;;;23.90;46.40;;;;;;6180318;28;82352;-68
2021/05/18 12:38:42;;;;;;;6.28;4.13;;;23.90;46.20;;;;;;6183750;28;80114;-67
2021/05/18 12:41:43;;;;;;;4.97;3.40;;;24.00;46.60;;;;;;6191560;28;82820;-70
2021/05/18 12:44:43;;;;;;;4.97;3.40;;;24.00;46.50;;;;;;6179400;28;80474;-68
2021/05/18 12:47:44;;;;;;;6.47;3.28;;;24.00;46.30;;;;;;6173568;28;81204;-68
2021/05/18 12:50:46;;;;;;;5.18;3.55;;;24.00;46.20;;;;;;6180848;28;80497;-67
2021/05/18 12:53:47;;;;;;;8.95;3.45;;;24.00;46.20;;;;;;6177920;28;81495;-67
2021/05/18 12:56:48;;;;;;;5.82;3.17;;;24.00;46.30;;;;;;6194426;28;81266;-67
2021/05/18 12:59:48;;;;;;;5.97;3.45;;;24.00;46.40;;;;;;6162103;28;80949;-67
2021/05/18 13:02:49;;;;;;;6.60;3.60;;;23.90;45.50;;;;;;6157498;28;81439;-67
2021/05/18 13:05:49;;;;;;;4.80;3.15;;;23.90;45.70;;;;;;6180522;28;83044;-66
2021/05/18 13:08:51;;;;;;;6.80;3.17;;;23.90;45.90;;;;;;6174797;27;80743;-66
2021/05/18 13:12:11;;;;;;;4.85;2.97;;;23.90;46.20;;;;;;6164651;28;80474;-65
2021/05/18 13:15:12;;;;;;;8.55;3.20;;;23.90;45.60;;;;;;6171309;28;81294;-68
2021/05/18 13:18:13;;;;;;;6.97;3.15;;;24.00;46.30;;;;;;6164795;28;80609;-67
2021/05/18 13:21:14;;;;;;;3.58;2.28;;;24.00;47.10;;;;;;6155491;28;81076;-68
2021/05/18 13:26:25;;;;;;;6.40;3.13;;;24.00;46.60;;;;;;6167910;28;80605;-66
2021/05/18 13:27:47;;;;;;;3.97;3.13;;;24.00;46.50;;;;;;6157413;28;80647;-67
2021/05/18 13:30:48;;;;;;;4.32;2.90;;;24.00;46.10;;;;;;6174653;28;81700;-67
2021/05/18 13:33:48;;;;;;;5.68;3.03;;;24.00;46.50;;;;;;6181596;28;80815;-68
2021/05/18 13:36:49;;;;;;;4.63;2.90;;;24.00;46.30;;;;;;6167045;28;82814;-66
2021/05/18 13:39:49;;;;;;;5.30;3.00;;;24.10;46.30;;;;;;6169928;28;80360;-67
2021/05/18 13:42:51;;;;;;;3.47;3.13;;;24.10;46.20;;;;;;6159902;28;81552;-66
2021/05/18 13:45:52;;;;;;;4.22;3.10;;;24.10;46.30;;;;;;6155641;28;81476;-67
2021/05/18 13:48:52;;;;;;;4.80;2.33;;;24.10;46.30;;;;;;6155527;28;80813;-67
2021/05/18 13:51:53;;;;;;;3.53;2.75;;;24.10;46.20;;;;;;6177756;28;82874;-66
2021/05/18 13:54:53;;;;;;;6.47;2.70;;;24.10;46.20;;;;;;6162271;28;80004;-66
2021/05/18 13:57:54;;;;;;;4.07;2.53;;;24.10;45.80;;;;;;6158728;28;80969;-69
2021/05/18 14:00:54;;;;;;;4.18;2.55;;;24.10;45.90;;;;;;6158338;28;81180;-66
2021/05/18 14:03:55;;;;;;;3.50;2.78;;;24.10;45.90;;;;;;6184200;28;80655;-67
2021/05/18 14:07:15;;;;;;;5.93;2.83;;;24.10;46.00;;;;;;6186859;28;81812;-67
2021/05/18 14:10:17;;;;;;;5.57;2.42;;;24.10;45.90;;;;;;6157938;28;80530;-67
2021/05/18 14:13:18;;;;;;;5.82;3.00;;;24.10;45.70;;;;;;6156022;28;81635;-68
2021/05/18 14:16:19;;;;;;;3.00;2.50;;;24.10;45.70;;;;;;6160108;28;81580;-69
2021/05/18 14:19:21;;;;;;;73.95;22.95;;;24.10;45.90;;;;;;6159229;28;80315;-68
2021/05/18 14:22:21;;;;;;;443.15;142.88;;;24.10;45.80;;;;;;6156366;28;86394;-68
2021/05/18 14:25:22;;;;;;;645.90;255.70;;;24.10;46.20;;;;;;6176265;28;85657;-68
2021/05/18 14:28:22;;;;;;;574.13;202.70;;;24.00;46.20;;;;;;6177256;28;85580;-68
2021/05/18 14:31:23;;;;;;;531.97;188.43;;;24.00;46.30;;;;;;6185864;28;85804;-68
2021/05/18 14:34:24;;;;;;;544.28;186.63;;;24.10;46.10;;;;;;6153599;28;85702;-66
2021/05/18 14:37:24;;;;;;;542.53;183.82;;;24.10;46.40;;;;;;6155341;28;85803;-67
2021/05/18 14:40:40;;;;;;;553.55;190.45;;;24.10;46.70;;;;;;6166615;28;87645;-67
2021/05/18 14:47:12;;;;;;;449.63;144.82;;;24.10;46.20;;;;;;6175100;28;85864;-67
2021/05/18 14:53:56;;;;;;;396.50;124.63;;;24.00;46.30;;;;;;6163477;28;88735;-67
2021/05/18 14:56:56;;;;;;;344.40;110.18;;;24.10;46.40;;;;;;6148591;28;86098;-66
2021/05/18 14:59:57;;;;;;;322.55;100.80;;;24.10;46.00;;;;;;6151872;28;86425;-67
2021/05/18 15:02:57;;;;;;;314.42;103.07;;;24.00;46.30;;;;;;6150702;28;88169;-68
2021/05/18 15:05:58;;;;;;;297.85;100.15;;;24.00;46.30;;;;;;6163493;28;85488;-67
2021/05/18 15:08:58;;;;;;;269.23;96.47;;;24.00;46.20;;;;;;6164560;28;85535;-66
2021/05/18 15:11:59;;;;;;;247.77;85.05;;;24.00;46.30;;;;;;6159585;28;85908;-67
2021/05/18 15:14:59;;;;;;;249.60;85.43;;;24.00;46.50;;;;;;6157834;28;83470;-68
2021/05/18 15:18:01;;;;;;;248.18;83.35;;;24.00;46.40;;;;;;6171099;28;83390;-68
2021/05/18 15:21:01;;;;;;;243.90;79.30;;;24.00;46.60;;;;;;6178684;28;84000;-68
2021/05/18 15:24:02;;;;;;;212.02;70.57;;;24.00;47.40;;;;;;6179874;28;83470;-68
2021/05/18 15:27:03;;;;;;;191.20;63.97;;;24.00;47.00;;;;;;6176708;28;82799;-68
2021/05/18 15:30:04;;;;;;;172.68;62.78;;;24.00;46.80;;;;;;6179562;28;83278;-67
2021/05/18 15:33:04;;;;;;;183.95;60.78;;;24.00;46.50;;;;;;6166311;28;83106;-66
2021/05/18 15:36:05;;;;;;;152.82;50.65;;;24.00;47.00;;;;;;6169336;28;83535;-67
2021/05/18 15:39:05;;;;;;;122.82;45.03;;;24.00;46.90;;;;;;6165653;28;83768;-67
2021/05/18 15:42:06;;;;;;;119.40;40.47;;;23.90;46.90;;;;;;6167490;28;83861;-67
2021/05/18 15:45:06;;;;;;;110.60;36.75;;;24.00;46.90;;;;;;6177469;28;83184;-67
2021/05/18 15:48:07;;;;;;;90.28;30.83;;;23.90;46.70;;;;;;6179783;28;83035;-67
2021/05/18 15:51:07;;;;;;;74.10;30.08;;;23.90;46.30;;;;;;6162500;28;83519;-67
2021/05/18 15:54:08;;;;;;;71.35;24.50;;;23.90;46.50;;;;;;6153940;28;88103;-65
2021/05/18 15:57:10;;;;;;;72.70;23.50;;;23.90;46.80;;;;;;6165945;28;84078;-67
2021/05/18 16:00:10;;;;;;;73.00;25.50;;;23.90;46.50;;;;;;6165049;28;83468;-67
2021/05/18 16:03:14;;;;;;;58.72;21.48;;;23.90;46.20;;;;;;6154967;28;83264;-66
2021/05/18 16:06:15;;;;;;;52.85;17.90;;;23.90;46.10;;;;;;6169592;28;83107;-67
2021/05/18 16:09:15;;;;;;;47.92;17.77;;;23.90;46.10;;;;;;6177818;28;83956;-67
2021/05/18 16:12:16;;;;;;;43.47;14.95;;;23.90;46.20;;;;;;6178797;28;84164;-69
2021/05/18 16:15:17;;;;;;;39.60;15.18;;;23.90;46.10;;;;;;6164204;28;83155;-66
2021/05/18 16:18:17;;;;;;;40.28;14.55;;;23.80;45.90;;;;;;6154473;28;84110;-66
2021/05/18 16:21:18;;;;;;;35.47;13.18;;;23.80;45.90;;;;;;6172943;28;85869;-69
2021/05/18 16:24:20;;;;;;;32.58;12.57;;;23.80;46.00;;;;;;6180323;28;83578;-66
2021/05/18 16:27:21;;;;;;;28.58;11.18;;;23.80;46.40;;;;;;6155175;28;83906;-65
2021/05/18 16:30:21;;;;;;;27.90;11.73;;;23.80;46.10;;;;;;6173240;28;83015;-68
2021/05/18 16:33:22;;;;;;;22.67;8.50;;;23.80;46.80;;;;;;6160612;28;82868;-67
2021/05/18 16:36:22;;;;;;;23.83;9.02;;;23.80;46.20;;;;;;6173827;28;82894;-67
2021/05/18 16:39:23;;;;;;;17.70;7.22;;;23.80;45.90;;;;;;6159968;28;82153;-65
2021/05/18 16:42:24;;;;;;;23.45;7.35;;;23.80;46.20;;;;;;6152556;28;81112;-68
2021/05/18 16:45:24;;;;;;;17.10;6.78;;;23.80;45.70;;;;;;6166843;28;81504;-67
2021/05/18 16:48:27;;;;;;;14.85;6.32;;;23.80;46.20;;;;;;6177363;28;81208;-69
2021/05/18 16:51:27;;;;;;;19.17;6.82;;;23.80;46.40;;;;;;6177430;28;83811;-71
2021/05/18 16:54:28;;;;;;;11.60;5.72;;;23.80;45.80;;;;;;6159399;28;81129;-72
2021/05/18 16:57:28;;;;;;;15.45;5.63;;;23.80;46.60;;;;;;6169407;28;80769;-68
2021/05/18 17:00:29;;;;;;;16.67;5.65;;;23.80;46.00;;;;;;6162457;28;81650;-68
2021/05/18 17:03:29;;;;;;;10.60;4.78;;;23.80;46.20;;;;;;6156881;28;80683;-69
2021/05/18 17:06:30;;;;;;;12.30;4.80;;;23.80;46.40;;;;;;6173691;28;82147;-67
2021/05/18 17:09:31;;;;;;;11.10;5.03;;;23.80;46.40;;;;;;6163846;28;80265;-67
2021/05/18 17:12:31;;;;;;;7.25;3.78;;;23.80;46.60;;;;;;6174150;28;80262;-66
2021/05/18 17:15:32;;;;;;;9.63;3.65;;;23.80;46.50;;;;;;6186441;28;80670;-67
2021/05/18 17:18:32;;;;;;;6.15;3.67;;;23.80;47.10;;;;;;6188535;28;80971;-66
2021/05/18 17:21:33;;;;;;;7.93;4.10;;;23.70;47.20;;;;;;6191782;28;80450;-66
2021/05/18 17:24:33;;;;;;;7.03;3.60;;;23.70;47.30;;;;;;6189915;28;80164;-66
2021/05/18 17:27:34;;;;;;;7.20;3.42;;;23.70;47.10;;;;;;6192841;28;81309;-66
2021/05/18 17:30:35;;;;;;;12.50;3.42;;;23.70;47.70;;;;;;6190667;28;80420;-66
2021/05/18 17:33:35;;;;;;;11.75;4.07;;;23.70;48.00;;;;;;6166152;28;81703;-65
2021/05/18 17:36:36;;;;;;;12.55;4.65;;;23.70;48.10;;;;;;6159558;28;81860;-66
2021/05/18 17:39:39;;;;;;;9.02;4.25;;;23.70;48.10;;;;;;6160931;28;80839;-64
2021/05/18 17:42:39;;;;;;;6.72;3.13;;;23.70;48.50;;;;;;6162888;28;81059;-66
2021/05/18 17:45:40;;;;;;;8.73;4.00;;;23.70;48.70;;;;;;6184745;28;81787;-65
2021/05/18 17:48:40;;;;;;;8.48;3.40;;;23.70;48.80;;;;;;6177152;28;81089;-66
2021/05/18 17:51:41;;;;;;;5.25;3.15;;;23.70;48.90;;;;;;6185093;28;80871;-66
2021/05/18 17:54:43;;;;;;;5.07;2.85;;;23.70;49.00;;;;;;6165297;28;81013;-67
2021/05/18 17:57:44;;;;;;;5.10;3.00;;;23.70;49.00;;;;;;6177077;28;81568;-65
2021/05/18 18:00:44;;;;;;;6.28;3.20;;;23.70;48.60;;;;;;6162933;28;80453;-68
2021/05/18 18:03:45;;;;;;;8.52;3.88;;;23.80;48.10;;;;;;6155460;28;81567;-68
2021/05/18 18:06:45;;;;;;;8.52;3.35;;;23.70;48.50;;;;;;6178250;28;80313;-67
2021/05/18 18:09:46;;;;;;;7.97;3.67;;;23.70;48.20;;;;;;6178384;28;81205;-68
2021/05/18 18:12:48;;;;;;;6.78;3.67;;;23.70;48.40;;;;;;6183886;28;80731;-69
2021/05/18 18:15:49;;;;;;;6.40;3.30;;;23.80;48.00;;;;;;6182684;27;81045;-67
2021/05/18 18:18:49;;;;;;;6.65;3.45;;;23.80;48.50;;;;;;6162894;28;80221;-67
2021/05/18 18:21:51;;;;;;;5.70;3.05;;;23.80;48.50;;;;;;6185077;28;80776;-70
2021/05/18 18:24:52;;;;;;;6.32;3.40;;;23.80;48.00;;;;;;6173515;28;80892;-67
2021/05/18 18:27:52;;;;;;;6.97;3.67;;;23.70;48.00;;;;;;6172431;28;81819;-65
2021/05/18 18:30:53;;;;;;;8.32;3.60;;;23.80;47.70;;;;;;6196548;28;81710;-69
2021/05/18 18:33:53;;;;;;;5.55;3.35;;;23.70;47.70;;;;;;6190191;28;82955;-70
2021/05/18 18:36:54;;;;;;;6.55;3.58;;;23.70;47.20;;;;;;6181153;28;80493;-68
2021/05/18 18:39:54;;;;;;;5.90;3.10;;;23.70;47.20;;;;;;6184457;28;80469;-69
2021/05/18 18:42:55;;;;;;;7.28;3.90;;;23.60;47.10;;;;;;6164159;28;81236;-65
2021/05/18 18:45:55;;;;;;;8.85;3.83;;;23.60;47.10;;;;;;6179519;28;80885;-69
2021/05/18 18:48:57;;;;;;;7.00;4.05;;;23.60;46.70;;;;;;6161692;28;80449;-66
2021/05/18 18:51:57;;;;;;;6.93;3.90;;;23.60;47.30;;;;;;6177150;28;80496;-71
2021/05/18 18:54:58;;;;;;;6.28;3.58;;;23.60;47.10;;;;;;6161691;28;82871;-68
2021/05/18 18:57:58;;;;;;;8.45;4.40;;;23.60;47.00;;;;;;6179654;28;80859;-68
2021/05/18 19:00:59;;;;;;;6.72;3.90;;;23.60;47.60;;;;;;6183030;28;81994;-69
2021/05/18 19:04:04;;;;;;;9.18;3.80;;;23.60;49.50;;;;;;6161475;28;80664;-68
2021/05/18 19:07:23;;;;;;;12.45;3.75;;;23.50;49.40;;;;;;6175273;28;80648;-69
2021/05/18 19:10:53;;;;;;;8.98;4.05;;;23.50;49.90;;;;;;6182399;28;80841;-69
2021/05/18 19:13:47;;;;;;;11.70;4.43;;;23.50;50.50;;;;;;6155234;28;85833;-68
2021/05/18 19:16:49;;;;;;;8.77;4.30;;;23.40;50.80;;;;;;6175782;28;80742;-70
2021/05/18 19:19:49;;;;;;;8.73;4.55;;;23.40;50.30;;;;;;6156575;28;80752;-70
2021/05/18 19:22:50;;;;;;;6.72;3.92;;;23.40;51.20;;;;;;6177872;28;82739;-71
2021/05/18 19:25:53;;;;;;;10.15;4.85;;;23.40;51.40;;;;;;6157147;28;81680;-71
2021/05/18 19:28:54;;;;;;;9.25;4.70;;;23.40;50.70;;;;;;6182346;28;80652;-72
2021/05/18 19:31:54;;;;;;;7.78;4.63;;;23.40;51.30;;;;;;6180235;28;80515;-70
2021/05/18 19:34:55;;;;;;;8.20;4.82;;;23.40;51.50;;;;;;6177793;28;80921;-70
2021/05/18 19:48:04;;;;;;;11.55;5.90;;;23.40;51.10;;;;;;6167224;28;80274;-70
2021/05/18 19:51:04;;;;;;;10.65;5.45;;;23.40;50.70;;;;;;6167352;28;81381;-69
2021/05/18 19:54:05;;;;;;;10.15;5.80;;;23.30;50.80;;;;;;6162289;28;80597;-69
2021/05/18 19:57:10;;;;;;;11.27;6.90;;;23.30;50.60;;;;;;6174427;28;81437;-68
2021/05/18 20:17:01;;;;;;;8.57;5.55;;;23.40;52.80;;;;;;6176664;28;85891;-67
2021/05/18 20:20:07;;;;;;;13.13;6.20;;;23.40;53.50;;;;;;6154026;28;81775;-69
2021/05/18 20:23:07;;;;;;;10.45;5.82;;;23.50;53.50;;;;;;6175340;28;80474;-67
2021/05/18 20:26:08;;;;;;;10.55;6.20;;;23.50;54.00;;;;;;6161126;28;81004;-68
2021/05/18 20:29:08;;;;;;;9.88;6.00;;;23.50;54.00;;;;;;6174450;28;82586;-69
2021/05/18 20:32:11;;;;;;;9.85;5.88;;;23.50;54.30;;;;;;6161966;28;80480;-69
2021/05/18 20:35:32;;;;;;;9.73;6.22;;;23.50;54.90;;;;;;6175357;28;80307;-69
2021/05/18 20:41:52;;;;;;;10.70;6.25;;;23.50;55.20;;;;;;6167650;28;80418;-68
2021/05/18 20:44:53;;;;;;;10.90;6.43;;;23.50;55.40;;;;;;6157271;28;80451;-68
2021/05/18 20:47:54;;;;;;;10.98;5.80;;;23.50;55.60;;;;;;6174922;28;80789;-69
2021/05/18 20:50:54;;;;;;;9.43;5.68;;;23.40;55.60;;;;;;6172482;28;81405;-67
2021/05/18 20:53:55;;;;;;;9.73;5.95;;;23.40;55.90;;;;;;6167658;28;81902;-67
2021/05/18 20:56:55;;;;;;;10.80;5.85;;;23.40;55.60;;;;;;6180643;28;82481;-68